createdAt,value
2023-01-25T00:02:19.509Z,2.00
2023-01-25T00:04:46.708Z,2.00
2023-01-25T00:07:20.491Z,2.00
2023-01-25T00:09:53.483Z,2.00
2023-01-25T00:12:26.492Z,2.00
2023-01-25T00:14:53.293Z,2.00
2023-01-25T00:17:27.600Z,2.00
2023-01-25T00:19:54.391Z,2.00
2023-01-25T00:22:27.530Z,2.00
2023-01-25T00:24:54.303Z,2.00
2023-01-25T00:27:21.051Z,2.00
2023-01-25T00:29:55.554Z,2.00
2023-01-25T00:32:28.673Z,2.00
2023-01-25T00:35:04.691Z,1.90
2023-01-25T00:37:43.593Z,1.90
2023-01-25T00:40:19.587Z,1.90
2023-01-25T00:42:52.541Z,1.90
2023-01-25T00:45:19.383Z,1.90
2023-01-25T00:47:46.220Z,1.90
2023-01-25T00:50:19.600Z,1.90
2023-01-25T00:52:46.365Z,1.90
2023-01-25T00:55:19.560Z,1.90
2023-01-25T00:57:46.417Z,1.90
2023-01-25T01:00:20.619Z,1.80
2023-01-25T01:02:53.577Z,1.80
2023-01-25T01:05:20.329Z,1.80
2023-01-25T01:07:56.565Z,1.80
2023-01-25T01:10:23.385Z,1.80
2023-01-25T01:12:57.718Z,1.80
2023-01-25T01:15:31.605Z,1.80
2023-01-25T01:17:59.826Z,1.80
2023-01-25T01:20:33.590Z,1.80
2023-01-25T01:23:00.548Z,1.80
2023-01-25T01:25:33.598Z,1.80
2023-01-25T01:28:00.540Z,1.80
2023-01-25T01:30:27.290Z,1.80
2023-01-25T01:33:00.583Z,1.80
2023-01-25T01:35:29.520Z,1.80
2023-01-25T01:37:57.104Z,1.80
2023-01-25T01:40:31.619Z,1.80
2023-01-25T01:43:06.722Z,1.80
2023-01-25T01:45:58.715Z,1.80
2023-01-25T01:48:31.538Z,1.80
2023-01-25T01:51:20.678Z,1.80
2023-01-25T01:53:54.300Z,1.80
2023-01-25T01:56:37.729Z,1.80
2023-01-25T01:59:06.527Z,1.80
2023-01-25T02:01:40.752Z,1.80
2023-01-25T02:04:08.885Z,1.80
2023-01-25T02:06:57.623Z,1.70
2023-01-25T02:09:34.682Z,1.60
2023-01-25T02:12:08.650Z,1.50
2023-01-25T02:14:37.621Z,1.40
2023-01-25T02:17:12.690Z,1.30
2023-01-25T02:20:30.667Z,1.30
2023-01-25T02:23:25.075Z,1.20
2023-01-25T02:25:58.695Z,1.30
2023-01-25T02:28:43.730Z,1.30
2023-01-25T02:31:17.865Z,1.30
2023-01-25T02:33:44.927Z,1.40
2023-01-25T02:36:11.625Z,1.40
2023-01-25T02:38:55.723Z,1.40
2023-01-25T02:41:35.952Z,1.40
2023-01-25T02:44:12.737Z,1.40
2023-01-25T02:46:41.310Z,1.50
2023-01-25T02:49:16.706Z,1.50
2023-01-25T02:51:46.677Z,1.60
2023-01-25T02:54:27.775Z,1.60
2023-01-25T02:57:01.750Z,1.60
2023-01-25T02:59:28.530Z,1.60
2023-01-25T03:02:05.795Z,1.60
2023-01-25T03:04:38.868Z,1.60
2023-01-25T03:07:05.713Z,1.60
2023-01-25T03:09:32.513Z,1.60
2023-01-25T03:12:05.761Z,1.60
2023-01-25T03:14:38.750Z,1.50
2023-01-25T03:17:11.813Z,1.60
2023-01-25T03:19:38.679Z,1.50
2023-01-25T03:22:06.795Z,1.50
2023-01-25T03:24:39.831Z,1.40
2023-01-25T03:27:20.805Z,1.40
2023-01-25T03:29:53.760Z,1.30
2023-01-25T03:32:20.823Z,1.40
2023-01-25T03:34:53.790Z,1.40
2023-01-25T03:37:27.850Z,1.40
2023-01-25T03:40:00.782Z,1.40
2023-01-25T03:42:34.893Z,1.40
2023-01-25T03:45:01.778Z,1.30
2023-01-25T03:47:43.784Z,1.20
2023-01-25T03:50:11.317Z,1.30
2023-01-25T03:52:48.920Z,1.20
2023-01-25T03:55:15.711Z,1.20
2023-01-25T03:57:56.803Z,1.20
2023-01-25T04:00:23.637Z,1.20
2023-01-25T04:02:56.914Z,1.20
2023-01-25T04:05:25.349Z,1.20
2023-01-25T04:07:58.848Z,1.30
2023-01-25T04:10:31.917Z,1.30
2023-01-25T04:12:58.702Z,1.30
2023-01-25T04:15:31.875Z,1.30
2023-01-25T04:17:58.649Z,1.30
2023-01-25T04:20:31.839Z,1.30
2023-01-25T04:23:02.613Z,1.20
2023-01-25T04:25:29.680Z,1.20
2023-01-25T04:28:02.897Z,1.20
2023-01-25T04:30:29.724Z,1.20
2023-01-25T04:33:03.000Z,1.30
2023-01-25T04:35:29.869Z,1.30
2023-01-25T04:37:57.979Z,1.30
2023-01-25T04:40:31.903Z,1.30
2023-01-25T04:42:59.028Z,1.20
2023-01-25T04:45:26.655Z,1.20
2023-01-25T04:48:07.875Z,1.20
2023-01-25T04:50:40.923Z,1.30
2023-01-25T04:53:19.921Z,1.30
2023-01-25T04:55:47.748Z,1.30
2023-01-25T04:58:21.948Z,1.40
2023-01-25T05:00:54.962Z,1.30
2023-01-25T05:03:22.725Z,1.30
2023-01-25T05:05:55.988Z,1.30
2023-01-25T05:08:22.805Z,1.30
2023-01-25T05:10:55.989Z,1.30
2023-01-25T05:13:28.956Z,1.20
2023-01-25T05:16:03.966Z,1.20
2023-01-25T05:18:47.114Z,1.20
2023-01-25T05:21:39.948Z,1.20
2023-01-25T05:24:13.959Z,1.20
2023-01-25T05:27:05.956Z,1.20
2023-01-25T05:29:46.986Z,1.10
2023-01-25T05:32:18.395Z,0.90
2023-01-25T05:34:45.414Z,0.80
2023-01-25T05:37:24.986Z,0.80
2023-01-25T05:39:57.991Z,0.80
2023-01-25T05:42:24.781Z,0.90
2023-01-25T05:44:51.662Z,1.00
2023-01-25T05:47:24.975Z,0.90
2023-01-25T05:49:51.835Z,0.90
2023-01-25T05:52:19.452Z,0.90
2023-01-25T05:54:52.995Z,0.90
2023-01-25T05:57:19.826Z,1.00
2023-01-25T05:59:46.669Z,1.00
2023-01-25T06:02:22.153Z,0.90
2023-01-25T06:04:49.100Z,1.00
2023-01-25T06:07:15.904Z,0.90
2023-01-25T06:09:49.026Z,0.80
2023-01-25T06:12:23.029Z,0.80
2023-01-25T06:14:49.849Z,0.70
2023-01-25T06:17:27.085Z,0.70
2023-01-25T06:19:53.936Z,0.70
2023-01-25T06:22:20.776Z,0.70
2023-01-25T06:24:54.054Z,0.70
2023-01-25T06:27:23.354Z,0.70
2023-01-25T06:29:57.073Z,0.60
2023-01-25T06:32:25.865Z,0.60
2023-01-25T06:35:00.179Z,0.60
2023-01-25T06:37:27.208Z,0.60
2023-01-25T06:39:54.092Z,0.60
2023-01-25T06:42:27.193Z,0.70
2023-01-25T06:44:54.011Z,0.70
2023-01-25T06:47:28.073Z,0.80
2023-01-25T06:50:01.076Z,0.80
2023-01-25T06:52:27.992Z,0.80
2023-01-25T06:55:01.097Z,0.70
2023-01-25T06:57:36.115Z,0.70
2023-01-25T07:00:10.137Z,0.70
2023-01-25T07:02:37.777Z,0.80
2023-01-25T07:05:04.735Z,0.80
2023-01-25T07:07:38.142Z,0.90
2023-01-25T07:10:05.273Z,0.90
2023-01-25T07:12:39.174Z,0.90
2023-01-25T07:15:13.170Z,0.90
2023-01-25T07:17:50.171Z,0.80
2023-01-25T07:20:24.195Z,0.80
2023-01-25T07:23:01.181Z,0.70
2023-01-25T07:25:35.243Z,0.70
2023-01-25T07:28:02.131Z,0.70
2023-01-25T07:30:35.111Z,0.60
2023-01-25T07:33:01.857Z,0.50
2023-01-25T07:35:35.212Z,0.30
2023-01-25T07:38:09.182Z,0.30
2023-01-25T07:40:36.157Z,0.30
2023-01-25T07:43:09.187Z,0.30
2023-01-25T07:45:42.149Z,0.30
2023-01-25T07:48:10.964Z,0.30
2023-01-25T07:50:39.493Z,0.30
2023-01-25T07:53:13.222Z,0.40
2023-01-25T07:55:40.107Z,0.40
2023-01-25T07:58:13.151Z,0.50
2023-01-25T08:00:40.389Z,0.40
2023-01-25T08:03:14.166Z,0.40
2023-01-25T08:05:44.809Z,0.50
2023-01-25T08:08:18.226Z,0.50
2023-01-25T08:10:45.090Z,0.60
2023-01-25T08:13:18.235Z,0.70
2023-01-25T08:15:56.213Z,0.70
2023-01-25T08:18:40.292Z,0.70
2023-01-25T08:21:07.257Z,0.60
2023-01-25T08:23:40.227Z,0.60
2023-01-25T08:26:09.672Z,0.60
2023-01-25T08:28:43.275Z,0.60
2023-01-25T08:31:20.297Z,0.70
2023-01-25T08:33:54.281Z,0.60
2023-01-25T08:36:24.057Z,0.70
2023-01-25T08:39:08.271Z,0.70
2023-01-25T08:41:42.265Z,0.70
2023-01-25T08:44:09.682Z,0.80
2023-01-25T08:46:43.408Z,0.80
2023-01-25T08:49:10.821Z,0.80
2023-01-25T08:51:37.702Z,0.70
2023-01-25T08:54:13.265Z,0.70
2023-01-25T08:56:48.259Z,0.60
2023-01-25T08:59:21.351Z,0.60
2023-01-25T09:01:48.297Z,0.50
2023-01-25T09:04:23.338Z,0.40
2023-01-25T09:06:51.103Z,0.40
2023-01-25T09:09:24.284Z,0.30
2023-01-25T09:11:57.502Z,0.30
2023-01-25T09:14:24.475Z,0.40
2023-01-25T09:16:58.354Z,0.40
2023-01-25T09:19:25.178Z,0.40
2023-01-25T09:21:58.329Z,0.40
2023-01-25T09:24:31.525Z,0.40
2023-01-25T09:27:06.370Z,0.40
2023-01-25T09:29:34.312Z,0.50
2023-01-25T09:32:11.412Z,0.50
2023-01-25T09:34:44.363Z,0.50
2023-01-25T09:37:11.296Z,0.50
2023-01-25T09:39:44.365Z,0.50
2023-01-25T09:42:41.383Z,0.40
2023-01-25T09:45:18.412Z,0.40
2023-01-25T09:48:27.335Z,0.50
2023-01-25T09:51:48.424Z,0.50
2023-01-25T09:54:18.631Z,0.50
2023-01-25T09:56:56.394Z,0.40
2023-01-25T09:59:28.453Z,0.40
2023-01-25T10:02:20.536Z,0.60
2023-01-25T10:04:50.253Z,0.60
2023-01-25T10:07:30.433Z,0.60
2023-01-25T10:10:07.797Z,0.60
2023-01-25T10:12:45.380Z,0.60
2023-01-25T10:15:19.466Z,0.50
2023-01-25T10:18:12.401Z,0.50
2023-01-25T10:21:04.447Z,0.40
2023-01-25T10:24:06.443Z,0.60
2023-01-25T10:26:38.922Z,0.60
2023-01-25T10:29:38.504Z,0.60
2023-01-25T10:32:32.454Z,0.70
2023-01-25T10:35:17.516Z,0.70
2023-01-25T10:38:00.448Z,0.80
2023-01-25T10:40:32.119Z,0.80
2023-01-25T10:43:12.472Z,0.90
2023-01-25T10:45:39.321Z,0.90
2023-01-25T10:48:22.490Z,1.00
2023-01-25T10:50:55.122Z,1.00
2023-01-25T10:53:33.587Z,1.10
2023-01-25T10:56:15.494Z,1.10
2023-01-25T10:58:48.629Z,1.10
2023-01-25T11:01:37.665Z,1.10
2023-01-25T11:04:31.534Z,1.00
2023-01-25T11:06:59.641Z,1.10
2023-01-25T11:09:36.517Z,1.00
2023-01-25T11:12:20.418Z,1.00
2023-01-25T11:14:58.768Z,1.10
2023-01-25T11:17:31.414Z,1.00
2023-01-25T11:20:21.506Z,0.90
2023-01-25T11:23:02.498Z,0.90
2023-01-25T11:25:34.172Z,0.80
2023-01-25T11:28:36.693Z,0.70
2023-01-25T11:31:03.594Z,0.70
2023-01-25T11:33:38.506Z,0.70
2023-01-25T11:36:11.065Z,0.60
2023-01-25T11:38:50.517Z,0.70
2023-01-25T11:41:45.303Z,0.60
2023-01-25T11:44:50.637Z,0.70
2023-01-25T11:48:01.202Z,0.80
2023-01-25T11:50:51.583Z,0.90
2023-01-25T11:53:46.127Z,1.00
2023-01-25T11:56:22.575Z,1.00
2023-01-25T11:58:52.363Z,1.00
2023-01-25T12:02:03.568Z,1.00
2023-01-25T12:05:02.339Z,1.00
2023-01-25T12:08:03.605Z,0.80
2023-01-25T12:11:18.558Z,0.70
2023-01-25T12:14:26.562Z,0.80
2023-01-25T12:17:12.709Z,0.70
2023-01-25T12:20:04.429Z,0.60
2023-01-25T12:23:02.571Z,0.60
2023-01-25T12:26:07.350Z,0.60
2023-01-25T12:28:57.562Z,0.70
2023-01-25T12:31:29.146Z,0.60
2023-01-25T12:34:15.672Z,0.60
2023-01-25T12:36:47.963Z,0.50
2023-01-25T12:39:32.614Z,0.50
2023-01-25T12:42:31.362Z,0.60
2023-01-25T12:45:22.652Z,0.60
2023-01-25T12:48:03.382Z,0.60
2023-01-25T12:50:48.661Z,0.60
2023-01-25T12:53:37.707Z,0.60
2023-01-25T12:56:16.892Z,0.50
2023-01-25T12:58:57.003Z,0.60
2023-01-25T13:02:00.745Z,0.70
2023-01-25T13:05:13.684Z,0.70
2023-01-25T13:07:54.717Z,0.80
2023-01-25T13:10:37.625Z,0.80
2023-01-25T13:13:31.830Z,0.80
2023-01-25T13:16:24.161Z,0.70
2023-01-25T13:18:57.978Z,0.60
2023-01-25T13:21:37.164Z,0.50
2023-01-25T13:24:24.085Z,0.50
2023-01-25T13:26:54.168Z,0.50
2023-01-25T13:29:42.688Z,0.50
2023-01-25T13:32:38.717Z,0.50
2023-01-25T13:35:32.523Z,0.50
2023-01-25T13:38:31.725Z,0.50
2023-01-25T13:41:27.699Z,0.50
2023-01-25T13:44:34.728Z,0.50
2023-01-25T13:47:05.286Z,0.60
2023-01-25T13:49:49.688Z,0.70
2023-01-25T13:52:21.316Z,0.70
2023-01-25T13:54:57.025Z,0.80
2023-01-25T13:57:31.566Z,0.90
2023-01-25T14:00:20.940Z,0.90
2023-01-25T14:02:55.063Z,0.80
2023-01-25T14:05:31.747Z,0.60
2023-01-25T14:07:58.776Z,0.60
2023-01-25T14:10:34.781Z,0.50
2023-01-25T14:13:02.516Z,0.50
2023-01-25T14:15:38.718Z,0.50
2023-01-25T14:18:22.783Z,0.50
2023-01-25T14:20:57.816Z,0.60
2023-01-25T14:23:30.105Z,0.60
2023-01-25T14:26:05.874Z,0.60
2023-01-25T14:28:59.524Z,0.60
2023-01-25T14:31:39.929Z,0.60
2023-01-25T14:34:20.809Z,0.60
2023-01-25T14:36:55.063Z,0.60
2023-01-25T14:39:29.735Z,0.50
2023-01-25T14:42:03.915Z,0.40
2023-01-25T14:44:31.077Z,0.40
2023-01-25T14:47:29.828Z,0.40
2023-01-25T14:50:28.682Z,0.30
2023-01-25T14:53:03.983Z,0.30
2023-01-25T14:55:30.795Z,0.20
2023-01-25T14:58:13.818Z,0.10
2023-01-25T15:00:46.890Z,0.00
2023-01-25T15:03:23.831Z,0.10
2023-01-25T15:06:04.867Z,0.10
2023-01-25T15:08:38.650Z,0.20
2023-01-25T15:11:30.844Z,0.20
2023-01-25T15:14:21.170Z,0.20
2023-01-25T15:16:48.291Z,0.20
2023-01-25T15:19:36.839Z,0.20
2023-01-25T15:22:14.861Z,0.20
2023-01-25T15:24:57.375Z,0.30
2023-01-25T15:27:25.165Z,0.30
2023-01-25T15:29:58.921Z,0.30
2023-01-25T15:32:34.025Z,0.30
2023-01-25T15:35:07.937Z,0.30
2023-01-25T15:37:34.687Z,0.20
2023-01-25T15:40:04.119Z,0.20
2023-01-25T15:42:39.068Z,0.30
2023-01-25T15:45:15.889Z,0.30
2023-01-25T15:47:47.364Z,0.20
2023-01-25T15:50:24.943Z,0.20
2023-01-25T15:52:57.937Z,0.20
2023-01-25T15:55:30.926Z,0.20
2023-01-25T15:58:04.920Z,0.20
2023-01-25T16:00:31.927Z,0.20
2023-01-25T16:02:58.675Z,0.30
2023-01-25T16:05:31.889Z,0.20
2023-01-25T16:07:58.781Z,0.30
2023-01-25T16:10:31.937Z,0.30
2023-01-25T16:13:04.982Z,0.20
2023-01-25T16:15:39.741Z,0.20
2023-01-25T16:18:20.075Z,0.20
2023-01-25T16:20:47.019Z,0.20
2023-01-25T16:23:14.048Z,0.30
2023-01-25T16:25:49.230Z,0.30
2023-01-25T16:28:16.934Z,0.30
2023-01-25T16:30:47.248Z,0.40
2023-01-25T16:33:27.248Z,0.40
2023-01-25T16:36:20.507Z,0.40
2023-01-25T16:38:54.235Z,0.40
2023-01-25T16:41:21.215Z,0.50
2023-01-25T16:43:49.135Z,0.50
2023-01-25T16:46:28.285Z,0.50
2023-01-25T16:48:57.889Z,0.50
2023-01-25T16:51:27.035Z,0.50
2023-01-25T16:54:03.314Z,0.60
2023-01-25T16:56:32.923Z,0.60
2023-01-25T16:59:11.998Z,0.60
2023-01-25T17:01:40.793Z,0.60
2023-01-25T17:04:08.742Z,0.60
2023-01-25T17:06:44.311Z,0.60
2023-01-25T17:09:22.963Z,0.60
2023-01-25T17:11:57.993Z,0.60
2023-01-25T17:14:24.834Z,0.60
2023-01-25T17:16:55.408Z,0.60
2023-01-25T17:19:29.018Z,0.70
2023-01-25T17:21:58.980Z,0.70
2023-01-25T17:24:26.601Z,0.70
2023-01-25T17:27:04.345Z,0.70
2023-01-25T17:29:31.324Z,0.70
2023-01-25T17:31:58.710Z,0.70
2023-01-25T17:34:32.061Z,0.70
2023-01-25T17:37:05.156Z,0.70
2023-01-25T17:39:33.054Z,0.70
2023-01-25T17:42:06.075Z,0.70
2023-01-25T17:44:32.920Z,0.70
2023-01-25T17:46:59.808Z,0.70
2023-01-25T17:49:35.214Z,0.70
2023-01-25T17:52:07.725Z,0.70
2023-01-25T17:54:43.095Z,0.70
2023-01-25T17:57:17.109Z,0.70
2023-01-25T17:59:43.962Z,0.70
2023-01-25T18:02:11.348Z,0.70
2023-01-25T18:04:45.089Z,0.70
2023-01-25T18:07:18.253Z,0.70
2023-01-25T18:09:45.070Z,0.60
2023-01-25T18:12:11.882Z,0.60
2023-01-25T18:14:45.231Z,0.60
2023-01-25T18:17:12.857Z,0.60
2023-01-25T18:19:39.791Z,0.60
2023-01-25T18:22:13.215Z,0.60
2023-01-25T18:24:40.649Z,0.60
2023-01-25T18:27:34.187Z,0.60
2023-01-25T18:30:01.113Z,0.60
2023-01-25T18:32:30.371Z,0.60
2023-01-25T18:35:04.266Z,0.60
2023-01-25T18:37:35.843Z,0.60
2023-01-25T18:40:02.816Z,0.60
2023-01-25T18:42:38.157Z,0.60
2023-01-25T18:45:05.888Z,0.60
2023-01-25T18:47:39.206Z,0.60
2023-01-25T18:50:13.315Z,0.60
2023-01-25T18:52:40.230Z,0.60
2023-01-25T18:55:14.471Z,0.60
2023-01-25T18:57:44.228Z,0.60
2023-01-25T19:00:21.165Z,0.60
2023-01-25T19:02:55.238Z,0.60
2023-01-25T19:05:50.202Z,0.70
2023-01-25T19:08:24.569Z,0.70
2023-01-25T19:10:57.918Z,0.70
2023-01-25T19:13:32.470Z,0.70
2023-01-25T19:16:12.866Z,0.70
2023-01-25T19:18:53.508Z,0.70
2023-01-25T19:21:25.877Z,0.70
2023-01-25T19:24:00.404Z,0.70
2023-01-25T19:26:34.279Z,0.70
2023-01-25T19:29:07.386Z,0.70
2023-01-25T19:31:37.272Z,0.70
2023-01-25T19:34:06.583Z,0.70
2023-01-25T19:36:42.257Z,0.70
2023-01-25T19:39:10.169Z,0.70
2023-01-25T19:41:45.564Z,0.70
2023-01-25T19:44:14.080Z,0.70
2023-01-25T19:46:41.401Z,0.70
2023-01-25T19:49:16.295Z,0.70
2023-01-25T19:51:55.298Z,0.70
2023-01-25T19:54:23.112Z,0.70
2023-01-25T19:56:56.390Z,0.70
2023-01-25T19:59:25.388Z,0.70
2023-01-25T20:01:52.593Z,0.70
2023-01-25T20:04:28.292Z,0.70
2023-01-25T20:07:02.398Z,0.70
2023-01-25T20:09:36.335Z,0.70
2023-01-25T20:12:07.897Z,0.70
2023-01-25T20:14:43.350Z,0.70
2023-01-25T20:17:17.307Z,0.70
2023-01-25T20:19:44.391Z,0.60
2023-01-25T20:22:19.468Z,0.60
2023-01-25T20:24:46.633Z,0.60
2023-01-25T20:27:20.460Z,0.60
2023-01-25T20:29:49.120Z,0.70
2023-01-25T20:32:31.515Z,0.70
2023-01-25T20:35:10.664Z,0.70
2023-01-25T20:37:44.315Z,0.70
2023-01-25T20:40:19.417Z,0.60
2023-01-25T20:42:55.438Z,0.70
2023-01-25T20:45:22.465Z,0.70
2023-01-25T20:47:49.762Z,0.70
2023-01-25T20:50:23.416Z,0.70
2023-01-25T20:52:57.371Z,0.60
2023-01-25T20:55:24.316Z,0.60
2023-01-25T20:57:57.426Z,0.60
2023-01-25T21:00:25.648Z,0.60
2023-01-25T21:03:03.487Z,0.60
2023-01-25T21:05:30.466Z,0.60
2023-01-25T21:08:03.430Z,0.50
2023-01-25T21:10:36.495Z,0.60
2023-01-25T21:13:04.643Z,0.50
2023-01-25T21:15:38.486Z,0.50
2023-01-25T21:18:12.701Z,0.50
2023-01-25T21:20:39.715Z,0.50
2023-01-25T21:23:06.550Z,0.50
2023-01-25T21:25:40.399Z,0.50
2023-01-25T21:28:07.224Z,0.50
2023-01-25T21:30:40.737Z,0.50
2023-01-25T21:33:10.410Z,0.50
2023-01-25T21:35:37.245Z,0.60
2023-01-25T21:38:10.592Z,0.60
2023-01-25T21:40:37.719Z,0.60
2023-01-25T21:43:17.448Z,0.50
2023-01-25T21:46:26.439Z,0.60
2023-01-25T21:49:23.447Z,0.50
2023-01-25T21:51:59.454Z,0.50
2023-01-25T21:54:38.738Z,0.50
2023-01-25T21:57:11.501Z,0.50
2023-01-25T21:59:47.458Z,0.60
2023-01-25T22:02:21.649Z,0.60
2023-01-25T22:04:48.475Z,0.60
2023-01-25T22:07:15.206Z,0.50
2023-01-25T22:09:48.702Z,0.50
2023-01-25T22:12:15.431Z,0.50
2023-01-25T22:14:42.180Z,0.50
2023-01-25T22:17:15.536Z,0.50
2023-01-25T22:19:42.394Z,0.50
2023-01-25T22:22:15.792Z,0.50
2023-01-25T22:24:42.616Z,0.50
2023-01-25T22:27:27.758Z,0.50
2023-01-25T22:29:54.569Z,0.50
2023-01-25T22:32:21.355Z,0.50
2023-01-25T22:34:54.621Z,0.50
2023-01-25T22:37:21.875Z,0.50
2023-01-25T22:39:48.676Z,0.50
2023-01-25T22:42:21.517Z,0.60
2023-01-25T22:44:48.259Z,0.50
2023-01-25T22:47:21.535Z,0.50
2023-01-25T22:49:48.265Z,0.50
2023-01-25T22:52:21.482Z,0.50
2023-01-25T22:54:50.268Z,0.60
2023-01-25T22:57:23.594Z,0.50
2023-01-25T22:59:50.405Z,0.50
2023-01-25T23:02:29.525Z,0.60
2023-01-25T23:04:57.562Z,0.50
2023-01-25T23:07:30.543Z,0.60
2023-01-25T23:09:57.749Z,0.60
2023-01-25T23:12:31.599Z,0.60
2023-01-25T23:15:05.687Z,0.50
2023-01-25T23:18:02.566Z,0.50
2023-01-25T23:20:29.942Z,0.50
2023-01-25T23:23:09.529Z,0.50
2023-01-25T23:25:39.025Z,0.50
2023-01-25T23:28:15.577Z,0.50
2023-01-25T23:30:48.680Z,0.50
2023-01-25T23:33:15.514Z,0.50
2023-01-25T23:35:50.550Z,0.50
2023-01-25T23:38:23.719Z,0.50
2023-01-25T23:40:50.469Z,0.50
2023-01-25T23:43:26.767Z,0.50
2023-01-25T23:45:53.673Z,0.50
2023-01-25T23:48:20.516Z,0.50
2023-01-25T23:50:53.613Z,0.50
2023-01-25T23:53:20.903Z,0.60
2023-01-25T23:56:05.614Z,0.50
2023-01-25T23:58:44.655Z,0.60
